createdAt,value
2023-01-23T00:00:06.950Z,1021.70
2023-01-23T00:01:06.954Z,1021.70
2023-01-23T00:02:07.012Z,1021.69
2023-01-23T00:03:06.939Z,1021.70
2023-01-23T00:04:06.913Z,1021.71
2023-01-23T00:05:06.908Z,1021.72
2023-01-23T00:06:06.957Z,1021.72
2023-01-23T00:07:06.904Z,1021.71
2023-01-23T00:08:06.894Z,1021.72
2023-01-23T00:09:06.880Z,1021.73
2023-01-23T00:10:06.867Z,1021.73
2023-01-23T00:11:06.851Z,1021.76
2023-01-23T00:12:06.898Z,1021.77
2023-01-23T00:13:06.819Z,1021.80
2023-01-23T00:14:06.841Z,1021.80
2023-01-23T00:15:06.843Z,1021.78
2023-01-23T00:16:06.831Z,1021.77
2023-01-23T00:17:06.814Z,1021.76
2023-01-23T00:18:07.042Z,1021.77
2023-01-23T00:19:06.770Z,1021.77
2023-01-23T00:20:06.783Z,1021.77
2023-01-23T00:21:06.740Z,1021.77
2023-01-23T00:22:06.748Z,1021.78
2023-01-23T00:23:06.747Z,1021.79
2023-01-23T00:24:06.725Z,1021.80
2023-01-23T00:25:06.755Z,1021.80
2023-01-23T00:26:06.708Z,1021.79
2023-01-23T00:27:06.710Z,1021.78
2023-01-23T00:28:06.992Z,1021.76
2023-01-23T00:29:06.671Z,1021.75
2023-01-23T00:30:06.679Z,1021.75
2023-01-23T00:31:06.775Z,1021.76
2023-01-23T00:32:06.687Z,1021.77
2023-01-23T00:33:06.641Z,1021.78
2023-01-23T00:34:06.716Z,1021.78
2023-01-23T00:35:06.626Z,1021.78
2023-01-23T00:36:07.312Z,1021.79
2023-01-23T00:37:06.631Z,1021.79
2023-01-23T00:38:07.397Z,1021.80
2023-01-23T00:39:06.697Z,1021.80
2023-01-23T00:40:06.567Z,1021.78
2023-01-23T00:41:06.573Z,1021.75
2023-01-23T00:42:06.537Z,1021.74
2023-01-23T00:43:06.535Z,1021.74
2023-01-23T00:44:06.525Z,1021.75
2023-01-23T00:45:06.514Z,1021.74
2023-01-23T00:46:06.522Z,1021.75
2023-01-23T00:47:06.476Z,1021.74
2023-01-23T00:48:06.482Z,1021.75
2023-01-23T00:49:06.515Z,1021.76
2023-01-23T00:50:06.451Z,1021.77
2023-01-23T00:51:06.483Z,1021.78
2023-01-23T00:52:06.478Z,1021.79
2023-01-23T00:53:06.438Z,1021.80
2023-01-23T00:54:06.447Z,1021.79
2023-01-23T00:55:06.417Z,1021.77
2023-01-23T00:56:06.421Z,1021.77
2023-01-23T00:57:06.434Z,1021.79
2023-01-23T00:58:06.409Z,1021.80
2023-01-23T00:59:06.441Z,1021.82
2023-01-23T01:00:06.353Z,1021.84
2023-01-23T01:01:06.343Z,1021.83
2023-01-23T01:02:06.346Z,1021.83
2023-01-23T01:03:06.401Z,1021.85
2023-01-23T01:04:06.392Z,1021.85
2023-01-23T01:05:06.329Z,1021.86
2023-01-23T01:06:06.293Z,1021.85
2023-01-23T01:07:06.312Z,1021.86
2023-01-23T01:08:06.333Z,1021.84
2023-01-23T01:09:06.320Z,1021.84
2023-01-23T01:10:06.260Z,1021.86
2023-01-23T01:11:06.315Z,1021.85
2023-01-23T01:12:06.257Z,1021.87
2023-01-23T01:13:06.228Z,1021.90
2023-01-23T01:14:06.303Z,1021.91
2023-01-23T01:15:06.239Z,1021.94
2023-01-23T01:16:06.232Z,1021.96
2023-01-23T01:17:06.179Z,1021.97
2023-01-23T01:18:06.199Z,1021.98
2023-01-23T01:19:06.175Z,1021.98
2023-01-23T01:20:06.186Z,1022.00
2023-01-23T01:21:06.172Z,1022.01
2023-01-23T01:22:06.141Z,1021.98
2023-01-23T01:23:06.127Z,1021.97
2023-01-23T01:24:06.113Z,1021.95
2023-01-23T01:25:06.102Z,1021.95
2023-01-23T01:26:06.106Z,1021.97
2023-01-23T01:27:06.120Z,1021.96
2023-01-23T01:28:06.091Z,1021.96
2023-01-23T01:29:06.144Z,1021.96
2023-01-23T01:30:06.135Z,1021.96
2023-01-23T01:31:06.151Z,1021.99
2023-01-23T01:32:06.035Z,1021.99
2023-01-23T01:33:06.025Z,1022.01
2023-01-23T01:34:06.058Z,1022.03
2023-01-23T01:35:06.013Z,1022.03
2023-01-23T01:36:05.990Z,1022.06
2023-01-23T01:37:06.010Z,1022.05
2023-01-23T01:38:07.832Z,1022.05
2023-01-23T01:39:05.988Z,1022.04
2023-01-23T01:40:05.999Z,1022.04
2023-01-23T01:41:05.983Z,1022.05
2023-01-23T01:42:05.999Z,1022.06
2023-01-23T01:43:05.925Z,1022.05
2023-01-23T01:44:05.935Z,1022.06
2023-01-23T01:45:05.936Z,1022.07
2023-01-23T01:46:05.916Z,1022.07
2023-01-23T01:47:05.915Z,1022.07
2023-01-23T01:48:06.020Z,1022.07
2023-01-23T01:49:05.960Z,1022.07
2023-01-23T01:50:05.869Z,1022.06
2023-01-23T01:51:05.905Z,1022.08
2023-01-23T01:52:05.887Z,1022.07
2023-01-23T01:53:05.847Z,1022.07
2023-01-23T01:54:05.843Z,1022.07
2023-01-23T01:55:05.892Z,1022.08
2023-01-23T01:56:05.792Z,1022.08
2023-01-23T01:57:05.786Z,1022.07
2023-01-23T01:58:05.778Z,1022.07
2023-01-23T01:59:05.813Z,1022.08
2023-01-23T02:00:05.807Z,1022.08
2023-01-23T02:01:05.822Z,1022.09
2023-01-23T02:02:05.746Z,1022.10
2023-01-23T02:03:05.715Z,1022.09
2023-01-23T02:04:05.738Z,1022.09
2023-01-23T02:05:05.708Z,1022.09
2023-01-23T02:06:05.724Z,1022.11
2023-01-23T02:07:05.705Z,1022.12
2023-01-23T02:08:05.688Z,1022.13
2023-01-23T02:09:05.681Z,1022.14
2023-01-23T02:10:05.693Z,1022.16
2023-01-23T02:11:05.684Z,1022.16
2023-01-23T02:12:05.703Z,1022.17
2023-01-23T02:13:05.623Z,1022.21
2023-01-23T02:14:05.613Z,1022.22
2023-01-23T02:15:05.601Z,1022.22
2023-01-23T02:16:05.644Z,1022.25
2023-01-23T02:17:05.617Z,1022.24
2023-01-23T02:18:05.570Z,1022.26
2023-01-23T02:19:05.602Z,1022.24
2023-01-23T02:20:05.558Z,1022.24
2023-01-23T02:21:05.536Z,1022.22
2023-01-23T02:22:05.565Z,1022.22
2023-01-23T02:23:05.547Z,1022.21
2023-01-23T02:24:05.503Z,1022.22
2023-01-23T02:25:05.525Z,1022.24
2023-01-23T02:26:05.485Z,1022.24
2023-01-23T02:27:05.499Z,1022.25
2023-01-23T02:28:05.529Z,1022.26
2023-01-23T02:29:05.472Z,1022.27
2023-01-23T02:30:05.503Z,1022.29
2023-01-23T02:31:05.545Z,1022.27
2023-01-23T02:32:05.522Z,1022.28
2023-01-23T02:33:05.431Z,1022.27
2023-01-23T02:34:05.446Z,1022.28
2023-01-23T02:35:05.411Z,1022.26
2023-01-23T02:36:05.402Z,1022.26
2023-01-23T02:37:05.387Z,1022.29
2023-01-23T02:38:05.381Z,1022.29
2023-01-23T02:39:05.388Z,1022.28
2023-01-23T02:40:05.349Z,1022.26
2023-01-23T02:41:05.400Z,1022.22
2023-01-23T02:42:05.355Z,1022.19
2023-01-23T02:43:05.384Z,1022.23
2023-01-23T02:44:05.308Z,1022.27
2023-01-23T02:45:05.323Z,1022.27
2023-01-23T02:46:05.389Z,1022.26
2023-01-23T02:47:05.317Z,1022.25
2023-01-23T02:48:05.291Z,1022.25
2023-01-23T02:49:05.284Z,1022.25
2023-01-23T02:50:05.309Z,1022.25
2023-01-23T02:51:05.343Z,1022.23
2023-01-23T02:52:05.261Z,1022.24
2023-01-23T02:53:05.234Z,1022.22
2023-01-23T02:54:05.241Z,1022.22
2023-01-23T02:55:05.223Z,1022.22
2023-01-23T02:56:05.198Z,1022.23
2023-01-23T02:57:05.203Z,1022.23
2023-01-23T02:58:05.210Z,1022.25
2023-01-23T02:59:05.188Z,1022.24
2023-01-23T03:00:05.148Z,1022.24
2023-01-23T03:01:05.267Z,1022.26
2023-01-23T03:02:05.215Z,1022.27
2023-01-23T03:03:05.151Z,1022.29
2023-01-23T03:04:05.105Z,1022.32
2023-01-23T03:05:05.140Z,1022.33
2023-01-23T03:06:05.095Z,1022.35
2023-01-23T03:07:05.132Z,1022.36
2023-01-23T03:08:05.156Z,1022.37
2023-01-23T03:09:05.069Z,1022.35
2023-01-23T03:10:05.058Z,1022.36
2023-01-23T03:11:05.050Z,1022.34
2023-01-23T03:12:05.053Z,1022.34
2023-01-23T03:13:05.052Z,1022.34
2023-01-23T03:14:05.031Z,1022.33
2023-01-23T03:15:05.041Z,1022.34
2023-01-23T03:16:05.071Z,1022.34
2023-01-23T03:17:05.001Z,1022.36
2023-01-23T03:18:05.002Z,1022.37
2023-01-23T03:19:04.997Z,1022.37
2023-01-23T03:20:04.960Z,1022.38
2023-01-23T03:21:04.970Z,1022.38
2023-01-23T03:22:04.932Z,1022.40
2023-01-23T03:23:04.951Z,1022.42
2023-01-23T03:24:04.928Z,1022.43
2023-01-23T03:25:04.900Z,1022.43
2023-01-23T03:26:04.924Z,1022.42
2023-01-23T03:27:04.894Z,1022.45
2023-01-23T03:28:04.921Z,1022.47
2023-01-23T03:29:04.871Z,1022.48
2023-01-23T03:30:04.862Z,1022.50
2023-01-23T03:31:04.967Z,1022.52
2023-01-23T03:32:04.834Z,1022.53
2023-01-23T03:33:04.855Z,1022.54
2023-01-23T03:34:04.831Z,1022.55
2023-01-23T03:35:04.802Z,1022.57
2023-01-23T03:36:04.785Z,1022.56
2023-01-23T03:37:04.799Z,1022.56
2023-01-23T03:38:04.793Z,1022.55
2023-01-23T03:39:04.787Z,1022.55
2023-01-23T03:40:04.784Z,1022.56
2023-01-23T03:41:04.784Z,1022.55
2023-01-23T03:42:04.726Z,1022.55
2023-01-23T03:43:04.720Z,1022.55
2023-01-23T03:44:04.754Z,1022.56
2023-01-23T03:45:04.712Z,1022.57
2023-01-23T03:46:04.761Z,1022.57
2023-01-23T03:47:04.725Z,1022.56
2023-01-23T03:48:04.683Z,1022.56
2023-01-23T03:49:04.667Z,1022.56
2023-01-23T03:50:04.687Z,1022.57
2023-01-23T03:51:04.713Z,1022.57
2023-01-23T03:52:04.651Z,1022.58
2023-01-23T03:53:04.634Z,1022.59
2023-01-23T03:54:04.611Z,1022.60
2023-01-23T03:55:04.633Z,1022.60
2023-01-23T03:56:04.717Z,1022.61
2023-01-23T03:57:04.603Z,1022.62
2023-01-23T03:58:04.585Z,1022.63
2023-01-23T03:59:04.570Z,1022.63
2023-01-23T04:00:04.616Z,1022.62
2023-01-23T04:01:04.591Z,1022.61
2023-01-23T04:02:04.559Z,1022.60
2023-01-23T04:03:04.649Z,1022.60
2023-01-23T04:04:04.529Z,1022.60
2023-01-23T04:05:04.513Z,1022.61
2023-01-23T04:06:04.501Z,1022.61
2023-01-23T04:07:04.522Z,1022.59
2023-01-23T04:08:04.495Z,1022.59
2023-01-23T04:09:04.494Z,1022.61
2023-01-23T04:10:04.476Z,1022.63
2023-01-23T04:11:04.450Z,1022.67
2023-01-23T04:12:04.439Z,1022.70
2023-01-23T04:13:04.480Z,1022.70
2023-01-23T04:14:04.448Z,1022.69
2023-01-23T04:15:04.421Z,1022.68
2023-01-23T04:16:04.429Z,1022.65
2023-01-23T04:17:04.387Z,1022.64
2023-01-23T04:18:04.384Z,1022.65
2023-01-23T04:19:04.420Z,1022.64
2023-01-23T04:20:04.364Z,1022.62
2023-01-23T04:21:04.376Z,1022.60
2023-01-23T04:22:04.367Z,1022.59
2023-01-23T04:23:04.338Z,1022.57
2023-01-23T04:24:04.332Z,1022.55
2023-01-23T04:25:04.308Z,1022.55
2023-01-23T04:26:04.313Z,1022.56
2023-01-23T04:27:04.294Z,1022.56
2023-01-23T04:28:04.293Z,1022.55
2023-01-23T04:29:04.299Z,1022.58
2023-01-23T04:30:04.287Z,1022.58
2023-01-23T04:31:04.411Z,1022.58
2023-01-23T04:32:04.238Z,1022.58
2023-01-23T04:33:04.238Z,1022.57
2023-01-23T04:34:04.240Z,1022.58
2023-01-23T04:35:04.223Z,1022.58
2023-01-23T04:36:04.229Z,1022.59
2023-01-23T04:37:04.201Z,1022.58
2023-01-23T04:38:04.173Z,1022.58
2023-01-23T04:39:04.185Z,1022.57
2023-01-23T04:40:04.187Z,1022.56
2023-01-23T04:41:04.189Z,1022.56
2023-01-23T04:42:04.150Z,1022.55
2023-01-23T04:43:04.129Z,1022.53
2023-01-23T04:44:04.133Z,1022.53
2023-01-23T04:45:04.108Z,1022.54
2023-01-23T04:46:04.156Z,1022.54
2023-01-23T04:47:04.098Z,1022.52
2023-01-23T04:48:04.056Z,1022.51
2023-01-23T04:49:04.084Z,1022.49
2023-01-23T04:50:04.062Z,1022.52
2023-01-23T04:51:04.174Z,1022.54
2023-01-23T04:52:04.036Z,1022.54
2023-01-23T04:53:04.095Z,1022.54
2023-01-23T04:54:04.068Z,1022.53
2023-01-23T04:55:04.025Z,1022.52
2023-01-23T04:56:04.007Z,1022.52
2023-01-23T04:57:04.027Z,1022.53
2023-01-23T04:58:04.003Z,1022.53
2023-01-23T04:59:03.968Z,1022.52
2023-01-23T05:00:03.967Z,1022.52
2023-01-23T05:01:04.022Z,1022.50
2023-01-23T05:02:04.142Z,1022.48
2023-01-23T05:03:03.935Z,1022.45
2023-01-23T05:04:03.969Z,1022.42
2023-01-23T05:05:03.930Z,1022.41
2023-01-23T05:06:03.941Z,1022.43
2023-01-23T05:07:03.959Z,1022.43
2023-01-23T05:08:03.879Z,1022.46
2023-01-23T05:09:03.876Z,1022.47
2023-01-23T05:10:03.870Z,1022.48
2023-01-23T05:11:03.858Z,1022.50
2023-01-23T05:12:03.867Z,1022.52
2023-01-23T05:13:03.853Z,1022.53
2023-01-23T05:14:03.841Z,1022.54
2023-01-23T05:15:03.851Z,1022.54
2023-01-23T05:16:03.898Z,1022.56
2023-01-23T05:17:03.816Z,1022.55
2023-01-23T05:18:03.839Z,1022.55
2023-01-23T05:19:03.786Z,1022.56
2023-01-23T05:20:03.781Z,1022.61
2023-01-23T05:21:03.793Z,1022.62
2023-01-23T05:22:03.741Z,1022.63
2023-01-23T05:23:03.770Z,1022.65
2023-01-23T05:24:03.750Z,1022.64
2023-01-23T05:25:03.733Z,1022.65
2023-01-23T05:26:03.742Z,1022.66
2023-01-23T05:27:03.746Z,1022.67
2023-01-23T05:28:03.692Z,1022.68
2023-01-23T05:29:03.694Z,1022.69
2023-01-23T05:30:03.686Z,1022.72
2023-01-23T05:31:03.885Z,1022.74
2023-01-23T05:32:03.631Z,1022.77
2023-01-23T05:33:03.641Z,1022.79
2023-01-23T05:34:03.617Z,1022.81
2023-01-23T05:35:03.569Z,1022.83
2023-01-23T05:36:03.603Z,1022.84
2023-01-23T05:37:03.679Z,1022.85
2023-01-23T05:38:03.578Z,1022.88
2023-01-23T05:39:03.597Z,1022.88
2023-01-23T05:40:03.560Z,1022.89
2023-01-23T05:41:03.563Z,1022.90
2023-01-23T05:42:03.546Z,1022.92
2023-01-23T05:43:03.580Z,1022.93
2023-01-23T05:44:03.520Z,1022.93
2023-01-23T05:45:03.528Z,1022.94
2023-01-23T05:46:03.603Z,1022.93
2023-01-23T05:47:03.441Z,1022.96
2023-01-23T05:48:03.539Z,1022.98
2023-01-23T05:49:03.514Z,1022.96
2023-01-23T05:50:03.421Z,1022.97
2023-01-23T05:51:03.530Z,1022.96
2023-01-23T05:52:03.436Z,1022.95
2023-01-23T05:53:03.505Z,1022.95
2023-01-23T05:54:03.516Z,1022.94
2023-01-23T05:55:03.455Z,1022.98
2023-01-23T05:56:03.449Z,1022.98
2023-01-23T05:57:03.416Z,1022.99
2023-01-23T05:58:03.402Z,1023.03
2023-01-23T05:59:03.409Z,1023.06
2023-01-23T06:00:03.428Z,1023.07
2023-01-23T06:01:03.459Z,1023.07
2023-01-23T06:02:03.366Z,1023.07
2023-01-23T06:03:03.299Z,1023.09
2023-01-23T06:04:03.287Z,1023.10
2023-01-23T06:05:03.355Z,1023.11
2023-01-23T06:06:03.345Z,1023.12
2023-01-23T06:07:03.312Z,1023.12
2023-01-23T06:08:03.267Z,1023.13
2023-01-23T06:09:03.236Z,1023.14
2023-01-23T06:10:03.220Z,1023.15
2023-01-23T06:11:03.289Z,1023.14
2023-01-23T06:12:03.207Z,1023.13
2023-01-23T06:13:03.188Z,1023.14
2023-01-23T06:14:03.264Z,1023.12
2023-01-23T06:15:03.486Z,1023.14
2023-01-23T06:16:03.289Z,1023.14
2023-01-23T06:17:03.216Z,1023.14
2023-01-23T06:18:03.283Z,1023.14
2023-01-23T06:19:03.219Z,1023.15
2023-01-23T06:20:03.190Z,1023.16
2023-01-23T06:21:03.180Z,1023.18
2023-01-23T06:22:03.197Z,1023.19
2023-01-23T06:23:03.132Z,1023.19
2023-01-23T06:24:03.163Z,1023.21
2023-01-23T06:25:03.066Z,1023.23
2023-01-23T06:26:03.129Z,1023.24
2023-01-23T06:27:03.116Z,1023.23
2023-01-23T06:28:03.064Z,1023.22
2023-01-23T06:29:03.029Z,1023.23
2023-01-23T06:30:03.088Z,1023.23
2023-01-23T06:31:03.185Z,1023.22
2023-01-23T06:32:02.995Z,1023.22
2023-01-23T06:33:02.979Z,1023.24
2023-01-23T06:34:03.017Z,1023.26
2023-01-23T06:35:02.968Z,1023.27
2023-01-23T06:36:02.996Z,1023.29
2023-01-23T06:37:03.008Z,1023.31
2023-01-23T06:38:03.007Z,1023.31
2023-01-23T06:39:02.920Z,1023.33
2023-01-23T06:40:02.969Z,1023.33
2023-01-23T06:41:02.956Z,1023.34
2023-01-23T06:42:02.951Z,1023.38
2023-01-23T06:43:02.913Z,1023.36
2023-01-23T06:44:02.902Z,1023.40
2023-01-23T06:45:02.889Z,1023.41
2023-01-23T06:46:02.876Z,1023.43
2023-01-23T06:47:02.853Z,1023.43
2023-01-23T06:48:02.917Z,1023.44
2023-01-23T06:49:05.215Z,1023.41
2023-01-23T06:50:02.860Z,1023.42
2023-01-23T06:51:02.830Z,1023.43
2023-01-23T06:52:02.808Z,1023.43
2023-01-23T06:53:03.095Z,1023.42
2023-01-23T06:54:02.871Z,1023.41
2023-01-23T06:55:02.829Z,1023.40
2023-01-23T06:56:02.778Z,1023.39
2023-01-23T06:57:02.761Z,1023.41
2023-01-23T06:58:02.765Z,1023.41
2023-01-23T06:59:02.746Z,1023.40
2023-01-23T07:00:02.798Z,1023.42
2023-01-23T07:01:02.726Z,1023.43
2023-01-23T07:02:02.705Z,1023.44
2023-01-23T07:03:02.770Z,1023.43
2023-01-23T07:04:02.708Z,1023.43
2023-01-23T07:05:02.704Z,1023.45
2023-01-23T07:06:02.686Z,1023.45
2023-01-23T07:07:02.651Z,1023.45
2023-01-23T07:08:04.790Z,1023.46
2023-01-23T07:09:02.856Z,1023.47
2023-01-23T07:10:02.632Z,1023.48
2023-01-23T07:11:02.608Z,1023.48
2023-01-23T07:12:02.627Z,1023.47
2023-01-23T07:13:02.647Z,1023.49
2023-01-23T07:14:02.580Z,1023.49
2023-01-23T07:15:02.609Z,1023.53
2023-01-23T07:16:02.625Z,1023.55
2023-01-23T07:17:02.849Z,1023.56
2023-01-23T07:18:02.554Z,1023.57
2023-01-23T07:19:02.588Z,1023.59
2023-01-23T07:20:02.548Z,1023.60
2023-01-23T07:21:02.508Z,1023.61
2023-01-23T07:22:02.507Z,1023.61
2023-01-23T07:23:04.642Z,1023.63
2023-01-23T07:24:02.495Z,1023.65
2023-01-23T07:25:02.467Z,1023.63
2023-01-23T07:26:02.731Z,1023.63
2023-01-23T07:27:02.454Z,1023.60
2023-01-23T07:28:02.437Z,1023.62
2023-01-23T07:29:02.470Z,1023.64
2023-01-23T07:30:02.423Z,1023.63
2023-01-23T07:31:02.592Z,1023.66
2023-01-23T07:32:02.432Z,1023.66
2023-01-23T07:33:02.434Z,1023.66
2023-01-23T07:34:02.408Z,1023.66
2023-01-23T07:35:02.380Z,1023.67
2023-01-23T07:36:02.372Z,1023.70
2023-01-23T07:37:02.358Z,1023.74
2023-01-23T07:38:02.374Z,1023.76
2023-01-23T07:39:02.385Z,1023.75
2023-01-23T07:40:04.381Z,1023.80
2023-01-23T07:41:02.377Z,1023.80
2023-01-23T07:42:02.388Z,1023.80
2023-01-23T07:43:02.312Z,1023.81
2023-01-23T07:44:02.295Z,1023.84
2023-01-23T07:45:02.337Z,1023.88
2023-01-23T07:46:02.387Z,1023.90
2023-01-23T07:47:02.289Z,1023.91
2023-01-23T07:48:02.285Z,1023.92
2023-01-23T07:49:02.283Z,1023.94
2023-01-23T07:50:02.217Z,1023.95
2023-01-23T07:51:02.235Z,1023.97
2023-01-23T07:52:02.231Z,1023.98
2023-01-23T07:53:02.188Z,1024.00
2023-01-23T07:54:02.171Z,1024.00
2023-01-23T07:55:02.206Z,1024.01
2023-01-23T07:56:02.163Z,1024.03
2023-01-23T07:57:02.239Z,1024.08
2023-01-23T07:58:02.199Z,1024.08
2023-01-23T07:59:02.152Z,1024.09
2023-01-23T08:00:02.122Z,1024.14
2023-01-23T08:01:02.311Z,1024.14
2023-01-23T08:02:02.189Z,1024.17
2023-01-23T08:03:02.113Z,1024.20
2023-01-23T08:04:02.193Z,1024.22
2023-01-23T08:05:02.103Z,1024.23
2023-01-23T08:06:02.059Z,1024.25
2023-01-23T08:07:02.043Z,1024.25
2023-01-23T08:08:12.985Z,1024.27
2023-01-23T08:09:02.088Z,1024.30
2023-01-23T08:10:02.052Z,1024.30
2023-01-23T08:11:02.041Z,1024.32
2023-01-23T08:12:01.991Z,1024.33
2023-01-23T08:13:02.072Z,1024.31
2023-01-23T08:14:01.971Z,1024.32
2023-01-23T08:15:02.014Z,1024.33
2023-01-23T08:16:02.777Z,1024.34
2023-01-23T08:17:02.067Z,1024.36
2023-01-23T08:18:02.165Z,1024.34
2023-01-23T08:19:01.977Z,1024.34
2023-01-23T08:20:02.583Z,1024.34
2023-01-23T08:21:03.375Z,1024.35
2023-01-23T08:22:02.079Z,1024.35
2023-01-23T08:23:01.914Z,1024.36
2023-01-23T08:24:01.904Z,1024.38
2023-01-23T08:25:01.867Z,1024.41
2023-01-23T08:26:01.886Z,1024.40
2023-01-23T08:27:01.863Z,1024.44
2023-01-23T08:28:01.857Z,1024.45
2023-01-23T08:29:01.881Z,1024.44
2023-01-23T08:30:01.944Z,1024.43
2023-01-23T08:31:01.934Z,1024.46
2023-01-23T08:32:01.932Z,1024.47
2023-01-23T08:33:01.801Z,1024.52
2023-01-23T08:34:01.798Z,1024.48
2023-01-23T08:35:01.784Z,1024.47
2023-01-23T08:36:02.598Z,1024.46
2023-01-23T08:37:01.847Z,1024.44
2023-01-23T08:38:01.809Z,1024.43
2023-01-23T08:39:01.728Z,1024.44
2023-01-23T08:40:01.769Z,1024.45
2023-01-23T08:41:01.775Z,1024.43
2023-01-23T08:42:01.712Z,1024.45
2023-01-23T08:43:01.725Z,1024.46
2023-01-23T08:44:01.811Z,1024.48
2023-01-23T08:45:01.702Z,1024.48
2023-01-23T08:46:01.903Z,1024.50
2023-01-23T08:47:01.853Z,1024.51
2023-01-23T08:48:01.664Z,1024.52
2023-01-23T08:49:01.826Z,1024.54
2023-01-23T08:50:01.691Z,1024.56
2023-01-23T08:51:01.781Z,1024.55
2023-01-23T08:52:01.638Z,1024.54
2023-01-23T08:53:01.742Z,1024.53
2023-01-23T08:54:01.627Z,1024.52
2023-01-23T08:55:01.676Z,1024.54
2023-01-23T08:56:01.611Z,1024.55
2023-01-23T08:57:01.627Z,1024.58
2023-01-23T08:58:01.594Z,1024.57
2023-01-23T08:59:01.562Z,1024.56
2023-01-23T09:00:01.590Z,1024.55
2023-01-23T09:01:01.581Z,1024.55
2023-01-23T09:02:01.625Z,1024.52
2023-01-23T09:03:01.548Z,1024.50
2023-01-23T09:04:01.502Z,1024.47
2023-01-23T09:05:01.464Z,1024.47
2023-01-23T09:06:01.460Z,1024.46
2023-01-23T09:07:01.462Z,1024.47
2023-01-23T09:08:02.321Z,1024.50
2023-01-23T09:09:01.435Z,1024.51
2023-01-23T09:10:01.437Z,1024.52
2023-01-23T09:11:01.420Z,1024.51
2023-01-23T09:12:01.460Z,1024.51
2023-01-23T09:13:01.392Z,1024.51
2023-01-23T09:14:01.401Z,1024.51
2023-01-23T09:15:01.412Z,1024.51
2023-01-23T09:16:01.357Z,1024.52
2023-01-23T09:17:01.384Z,1024.49
2023-01-23T09:18:01.385Z,1024.49
2023-01-23T09:19:01.317Z,1024.51
2023-01-23T09:20:01.363Z,1024.48
2023-01-23T09:21:01.313Z,1024.51
2023-01-23T09:22:01.316Z,1024.52
2023-01-23T09:23:01.315Z,1024.55
2023-01-23T09:24:01.286Z,1024.56
2023-01-23T09:25:01.274Z,1024.59
2023-01-23T09:26:01.272Z,1024.60
2023-01-23T09:27:01.276Z,1024.66
2023-01-23T09:28:01.241Z,1024.64
2023-01-23T09:29:01.263Z,1024.65
2023-01-23T09:30:01.254Z,1024.64
2023-01-23T09:31:01.270Z,1024.66
2023-01-23T09:32:01.276Z,1024.68
2023-01-23T09:33:01.565Z,1024.70
2023-01-23T09:34:01.188Z,1024.71
2023-01-23T09:35:01.213Z,1024.75
2023-01-23T09:36:01.183Z,1024.75
2023-01-23T09:37:01.146Z,1024.76
2023-01-23T09:38:01.172Z,1024.75
2023-01-23T09:39:01.167Z,1024.75
2023-01-23T09:40:01.153Z,1024.76
2023-01-23T09:41:01.111Z,1024.80
2023-01-23T09:42:01.178Z,1024.83
2023-01-23T09:43:01.430Z,1024.81
2023-01-23T09:44:01.113Z,1024.80
2023-01-23T09:45:01.101Z,1024.79
2023-01-23T09:46:01.165Z,1024.79
2023-01-23T09:47:01.133Z,1024.82
2023-01-23T09:48:01.071Z,1024.81
2023-01-23T09:49:01.061Z,1024.84
2023-01-23T09:50:01.042Z,1024.78
2023-01-23T09:51:01.055Z,1024.78
2023-01-23T09:52:01.008Z,1024.78
2023-01-23T09:53:00.998Z,1024.76
2023-01-23T09:54:00.995Z,1024.75
2023-01-23T09:55:01.025Z,1024.72
2023-01-23T09:56:01.010Z,1024.71
2023-01-23T09:57:00.951Z,1024.70
2023-01-23T09:58:00.992Z,1024.71
2023-01-23T09:59:00.951Z,1024.74
2023-01-23T10:00:01.332Z,1024.72
2023-01-23T10:01:00.910Z,1024.71
2023-01-23T10:02:00.990Z,1024.72
2023-01-23T10:03:00.941Z,1024.71
2023-01-23T10:04:00.927Z,1024.72
2023-01-23T10:05:00.904Z,1024.74
2023-01-23T10:06:00.869Z,1024.72
2023-01-23T10:07:00.873Z,1024.70
2023-01-23T10:08:00.861Z,1024.70
2023-01-23T10:09:00.841Z,1024.69
2023-01-23T10:10:00.852Z,1024.68
2023-01-23T10:11:00.834Z,1024.66
2023-01-23T10:12:00.823Z,1024.67
2023-01-23T10:13:00.816Z,1024.66
2023-01-23T10:14:00.798Z,1024.67
2023-01-23T10:15:00.788Z,1024.70
2023-01-23T10:16:00.765Z,1024.70
2023-01-23T10:17:00.800Z,1024.71
2023-01-23T10:18:00.834Z,1024.71
2023-01-23T10:19:00.844Z,1024.70
2023-01-23T10:20:00.772Z,1024.71
2023-01-23T10:21:00.789Z,1024.72
2023-01-23T10:22:00.777Z,1024.68
2023-01-23T10:23:00.746Z,1024.69
2023-01-23T10:24:00.721Z,1024.71
2023-01-23T10:25:00.701Z,1024.70
2023-01-23T10:26:00.672Z,1024.72
2023-01-23T10:27:00.674Z,1024.74
2023-01-23T10:28:00.671Z,1024.77
2023-01-23T10:29:00.675Z,1024.74
2023-01-23T10:30:00.663Z,1024.73
2023-01-23T10:31:00.784Z,1024.73
2023-01-23T10:32:00.719Z,1024.72
2023-01-23T10:33:00.615Z,1024.69
2023-01-23T10:34:03.439Z,1024.70
2023-01-23T10:35:00.605Z,1024.69
2023-01-23T10:36:00.594Z,1024.71
2023-01-23T10:37:00.569Z,1024.72
2023-01-23T10:38:00.577Z,1024.73
2023-01-23T10:39:00.681Z,1024.72
2023-01-23T10:40:00.545Z,1024.71
2023-01-23T10:41:00.546Z,1024.72
2023-01-23T10:42:02.754Z,1024.73
2023-01-23T10:43:00.502Z,1024.72
2023-01-23T10:44:00.510Z,1024.72
2023-01-23T10:45:00.510Z,1024.71
2023-01-23T10:46:00.518Z,1024.69
2023-01-23T10:47:00.479Z,1024.70
2023-01-23T10:48:03.615Z,1024.70
2023-01-23T10:49:00.464Z,1024.72
2023-01-23T10:50:00.559Z,1024.73
2023-01-23T10:51:00.568Z,1024.72
2023-01-23T10:52:00.422Z,1024.74
2023-01-23T10:53:00.423Z,1024.74
2023-01-23T10:54:04.608Z,1024.72
2023-01-23T10:55:00.427Z,1024.74
2023-01-23T10:56:00.396Z,1024.77
2023-01-23T10:57:00.407Z,1024.74
2023-01-23T10:58:00.403Z,1024.70
2023-01-23T10:59:00.388Z,1024.67
2023-01-23T11:00:00.390Z,1024.64
2023-01-23T11:01:00.351Z,1024.65
2023-01-23T11:02:01.095Z,1024.62
2023-01-23T11:03:00.333Z,1024.62
2023-01-23T11:04:00.341Z,1024.60
2023-01-23T11:05:00.317Z,1024.57
2023-01-23T11:06:00.298Z,1024.58
2023-01-23T11:07:00.266Z,1024.55
2023-01-23T11:08:00.268Z,1024.59
2023-01-23T11:09:00.338Z,1024.56
2023-01-23T11:10:00.317Z,1024.58
2023-01-23T11:11:00.223Z,1024.57
2023-01-23T11:12:00.253Z,1024.55
2023-01-23T11:13:00.881Z,1024.55
2023-01-23T11:14:00.238Z,1024.56
2023-01-23T11:15:00.240Z,1024.55
2023-01-23T11:16:00.284Z,1024.53
2023-01-23T11:17:00.234Z,1024.50
2023-01-23T11:18:00.204Z,1024.50
2023-01-23T11:19:00.159Z,1024.53
2023-01-23T11:20:00.146Z,1024.52
2023-01-23T11:21:00.563Z,1024.55
2023-01-23T11:22:00.173Z,1024.56
2023-01-23T11:23:00.253Z,1024.55
2023-01-23T11:24:03.862Z,1024.54
2023-01-23T11:25:00.183Z,1024.53
2023-01-23T11:26:02.000Z,1024.52
2023-01-23T11:27:00.098Z,1024.51
2023-01-23T11:28:00.077Z,1024.50
2023-01-23T11:29:00.750Z,1024.48
2023-01-23T11:30:00.261Z,1024.44
2023-01-23T11:31:12.501Z,1024.43
2023-01-23T11:32:00.723Z,1024.41
2023-01-23T11:33:00.028Z,1024.40
2023-01-23T11:34:00.060Z,1024.40
2023-01-23T11:34:59.998Z,1024.38
2023-01-23T11:35:59.992Z,1024.37
2023-01-23T11:36:59.985Z,1024.38
2023-01-23T11:38:00.016Z,1024.38
2023-01-23T11:38:59.968Z,1024.38
2023-01-23T11:39:59.966Z,1024.38
2023-01-23T11:40:59.984Z,1024.40
2023-01-23T11:41:59.954Z,1024.42
2023-01-23T11:42:59.989Z,1024.40
2023-01-23T11:43:59.900Z,1024.37
2023-01-23T11:45:00.017Z,1024.29
2023-01-23T11:45:59.960Z,1024.27
2023-01-23T11:46:59.900Z,1024.26
2023-01-23T11:47:59.860Z,1024.27
2023-01-23T11:48:59.875Z,1024.24
2023-01-23T11:49:59.851Z,1024.25
2023-01-23T11:50:59.887Z,1024.23
2023-01-23T11:51:59.829Z,1024.23
2023-01-23T11:52:59.816Z,1024.21
2023-01-23T11:53:59.832Z,1024.22
2023-01-23T11:54:59.930Z,1024.22
2023-01-23T11:55:59.904Z,1024.19
2023-01-23T11:56:59.879Z,1024.21
2023-01-23T11:57:59.764Z,1024.23
2023-01-23T11:58:59.793Z,1024.21
2023-01-23T11:59:59.762Z,1024.21
2023-01-23T12:00:59.777Z,1024.24
2023-01-23T12:02:03.456Z,1024.26
2023-01-23T12:02:59.792Z,1024.27
2023-01-23T12:03:59.769Z,1024.26
2023-01-23T12:04:59.711Z,1024.25